Time;durP1;ratioP1;P1;durP2;ratioP2;P2;SDS_P1;SDS_P2;PMS_P1;PMS_P2;Temp;Humidity;BMP_temperature;BMP_pressure;BME280_temperature;BME280_humidity;BME280_pressure;Samples;Min_cycle;Max_cycle;Signal;HPM_P1;HPM_P2
2022/02/15 00:00:49;;;;;;;8.07;4.07;;;8.10;97.70;;;;;;5033004;28;20185;-94
2022/02/15 00:03:15;;;;;;;6.83;3.40;;;8.20;97.60;;;;;;5032872;28;20285;-93
2022/02/15 00:05:40;;;;;;;8.27;3.40;;;8.10;97.30;;;;;;5024012;28;20205;-93
2022/02/15 00:08:06;;;;;;;7.97;3.43;;;8.10;97.40;;;;;;5024568;28;20177;-93
2022/02/15 00:10:33;;;;;;;6.67;3.53;;;8.10;97.70;;;;;;5046907;28;20682;-92
2022/02/15 00:13:03;;;;;;;5.83;3.20;;;8.00;97.90;;;;;;5045199;28;20181;-92
2022/02/15 00:15:29;;;;;;;6.10;3.20;;;7.90;98.20;;;;;;5046120;28;20173;-91
2022/02/15 00:17:55;;;;;;;7.27;3.47;;;7.90;98.60;;;;;;5044251;28;20181;-92
2022/02/15 00:20:28;;;;;;;9.30;3.30;;;8.10;98.50;;;;;;5039996;28;20193;-92
2022/02/15 00:22:57;;;;;;;8.50;3.43;;;8.10;97.90;;;;;;5040374;28;20231;-91
2022/02/15 00:25:23;;;;;;;8.47;3.67;;;8.00;98.10;;;;;;5042470;28;20267;-91
2022/02/15 00:27:48;;;;;;;10.53;4.00;;;7.90;98.40;;;;;;5041140;28;20276;-92
2022/02/15 00:30:14;;;;;;;8.77;4.57;;;8.00;98.60;;;;;;5042747;28;20219;-92
2022/02/15 00:32:42;;;;;;;8.17;3.67;;;8.10;98.40;;;;;;5049181;28;20183;-91
2022/02/15 00:35:08;;;;;;;9.60;3.57;;;8.20;97.90;;;;;;5043181;28;20169;-93
2022/02/15 00:37:34;;;;;;;6.43;3.03;;;8.10;97.60;;;;;;5042251;28;20173;-92
2022/02/15 00:40:00;;;;;;;7.17;3.60;;;8.10;97.60;;;;;;5042159;28;20196;-92
2022/02/15 00:42:26;;;;;;;8.47;3.60;;;8.10;98.20;;;;;;5043276;28;20589;-93
2022/02/15 00:44:54;;;;;;;8.80;3.50;;;8.10;97.90;;;;;;5050973;28;20180;-92
2022/02/15 00:47:20;;;;;;;8.27;3.80;;;8.00;97.80;;;;;;5052486;28;20157;-93
2022/02/15 00:49:46;;;;;;;7.97;3.83;;;7.90;98.30;;;;;;5048824;28;20181;-93
2022/02/15 00:52:13;;;;;;;6.17;3.60;;;7.80;98.90;;;;;;5053893;28;20188;-92
2022/02/15 00:54:42;;;;;;;9.97;3.77;;;7.80;99.50;;;;;;5052963;28;20226;-92
2022/02/15 00:57:10;;;;;;;6.90;3.30;;;7.80;99.60;;;;;;5043055;28;20272;-93
2022/02/15 00:59:37;;;;;;;9.20;3.43;;;7.70;99.70;;;;;;5041220;28;20177;-93
2022/02/15 01:02:03;;;;;;;8.80;4.33;;;7.70;99.90;;;;;;5040776;28;20206;-94
2022/02/15 01:04:29;;;;;;;9.03;4.00;;;8.00;99.80;;;;;;5039552;28;20252;-93
2022/02/15 01:06:54;;;;;;;10.17;4.60;;;7.80;99.10;;;;;;5039727;28;20607;-93
2022/02/15 01:09:22;;;;;;;8.83;3.90;;;7.90;99.70;;;;;;5032715;28;20208;-93
2022/02/15 01:11:48;;;;;;;8.10;3.80;;;7.90;99.60;;;;;;5019447;28;20170;-92
2022/02/15 01:14:15;;;;;;;9.70;4.07;;;7.90;99.20;;;;;;5019539;28;20225;-93
2022/02/15 01:16:41;;;;;;;7.33;3.70;;;7.80;98.90;;;;;;5019096;28;20182;-92
2022/02/15 01:19:06;;;;;;;9.33;4.37;;;7.90;99.20;;;;;;5023278;28;20225;-93
2022/02/15 01:21:32;;;;;;;11.87;4.57;;;7.90;99.10;;;;;;5023533;28;20552;-93
2022/02/15 01:24:07;;;;;;;6.97;3.53;;;7.90;98.90;;;;;;5022711;28;20304;-93
2022/02/15 01:26:33;;;;;;;9.03;4.40;;;7.80;99.20;;;;;;5022640;28;20173;-94
2022/02/15 01:29:00;;;;;;;8.53;4.03;;;7.90;99.50;;;;;;5023653;28;20280;-92
2022/02/15 01:31:26;;;;;;;12.40;5.07;;;7.90;99.00;;;;;;5023513;28;20169;-92
2022/02/15 01:33:52;;;;;;;8.20;3.67;;;7.90;98.90;;;;;;5041163;28;20189;-93
2022/02/15 01:36:17;;;;;;;9.77;4.37;;;7.90;98.90;;;;;;5005061;28;20171;-93
2022/02/15 01:38:43;;;;;;;8.70;4.67;;;7.80;99.50;;;;;;5004400;28;20185;-93
2022/02/15 01:41:12;;;;;;;12.37;4.60;;;7.70;99.60;;;;;;5002455;28;20265;-93
2022/02/15 01:43:43;;;;;;;11.60;5.10;;;7.80;99.90;;;;;;5003331;28;20214;-94
2022/02/15 01:46:10;;;;;;;11.60;4.50;;;8.00;99.60;;;;;;5024490;28;20705;-93
2022/02/15 01:48:37;;;;;;;11.57;4.80;;;8.00;98.70;;;;;;5042418;28;20213;-93
2022/02/15 01:51:03;;;;;;;11.27;4.70;;;8.00;98.90;;;;;;5042708;28;20169;-93
2022/02/15 01:53:29;;;;;;;9.23;5.00;;;7.80;99.10;;;;;;5042974;28;20236;-93
2022/02/15 01:55:56;;;;;;;14.13;5.40;;;7.90;99.50;;;;;;5042187;28;20529;-93
2022/02/15 01:58:25;;;;;;;9.43;4.50;;;7.90;99.20;;;;;;5041931;28;20192;-93
2022/02/15 02:00:52;;;;;;;10.87;4.83;;;8.00;99.00;;;;;;5042680;28;20184;-93
2022/02/15 02:03:18;;;;;;;12.37;5.63;;;7.90;99.40;;;;;;5044522;28;20204;-92
2022/02/15 02:05:50;;;;;;;9.40;4.80;;;7.80;99.50;;;;;;5044133;28;20177;-93
2022/02/15 02:08:17;;;;;;;9.60;5.00;;;7.80;99.70;;;;;;5048570;28;20169;-93
2022/02/15 02:10:44;;;;;;;9.90;6.00;;;7.80;99.60;;;;;;5048920;28;20216;-93
2022/02/15 02:13:10;;;;;;;11.50;5.57;;;7.90;99.70;;;;;;5043418;28;20196;-93
2022/02/15 02:15:35;;;;;;;9.53;5.93;;;8.00;99.50;;;;;;5023895;28;20177;-93
2022/02/15 02:18:01;;;;;;;11.07;6.07;;;8.00;99.20;;;;;;5023555;28;20649;-93
2022/02/15 02:20:29;;;;;;;14.77;6.23;;;8.00;98.60;;;;;;5023134;28;20247;-90
2022/02/15 02:22:55;;;;;;;9.27;5.40;;;8.00;99.60;;;;;;5023446;28;20224;-92
2022/02/15 02:25:22;;;;;;;11.03;5.97;;;8.20;98.70;;;;;;5022551;28;20256;-92
2022/02/15 02:27:48;;;;;;;9.80;5.60;;;8.00;98.20;;;;;;5022676;28;20188;-92
2022/02/15 02:30:16;;;;;;;10.70;5.60;;;7.90;98.50;;;;;;5040002;28;20170;-92
2022/02/15 02:32:43;;;;;;;11.17;5.43;;;7.80;99.20;;;;;;5033789;28;20190;-92
2022/02/15 02:35:09;;;;;;;11.67;5.70;;;7.70;99.90;;;;;;5039615;28;20170;-92
2022/02/15 02:37:39;;;;;;;9.73;5.33;;;7.80;99.90;;;;;;5037735;28;20268;-91
2022/02/15 02:40:07;;;;;;;8.33;5.20;;;7.90;99.90;;;;;;5021769;28;20221;-92
2022/02/15 02:42:34;;;;;;;11.07;5.30;;;7.90;99.80;;;;;;5022156;28;20264;-92
2022/02/15 02:45:03;;;;;;;12.33;5.43;;;7.80;99.30;;;;;;5024444;28;20174;-92
2022/02/15 02:47:30;;;;;;;12.63;5.27;;;7.80;99.50;;;;;;5026364;28;20189;-92
2022/02/15 02:49:57;;;;;;;10.33;6.07;;;7.80;99.40;;;;;;5026022;28;20193;-93
2022/02/15 02:52:24;;;;;;;8.00;5.17;;;7.90;99.60;;;;;;5024266;28;20235;-92
2022/02/15 02:54:50;;;;;;;10.50;6.27;;;7.70;99.80;;;;;;5021756;28;20181;-92
2022/02/15 02:57:16;;;;;;;10.87;6.73;;;7.90;99.70;;;;;;5027568;28;20185;-91
2022/02/15 02:59:48;;;;;;;18.20;7.07;;;8.10;98.50;;;;;;5026770;28;20228;-92
2022/02/15 03:02:15;;;;;;;9.67;6.03;;;8.00;97.50;;;;;;5023660;28;20205;-91
2022/02/15 03:04:43;;;;;;;13.57;6.67;;;7.90;97.30;;;;;;5027350;28;20178;-91
2022/02/15 03:07:10;;;;;;;13.77;6.53;;;7.80;98.30;;;;;;5027480;28;20249;-91
2022/02/15 03:09:37;;;;;;;12.77;6.63;;;7.70;98.60;;;;;;5027358;28;20178;-92
2022/02/15 03:12:04;;;;;;;11.67;6.10;;;7.80;98.80;;;;;;5031393;28;20158;-92
2022/02/15 03:14:30;;;;;;;12.73;6.63;;;7.70;99.00;;;;;;5040951;28;20162;-91
2022/02/15 03:16:56;;;;;;;10.93;6.60;;;7.70;99.10;;;;;;5041900;28;20201;-91
2022/02/15 03:19:22;;;;;;;9.33;6.00;;;7.90;98.90;;;;;;5040305;28;20212;-90
2022/02/15 03:21:47;;;;;;;9.97;6.37;;;7.90;97.70;;;;;;5023202;28;20641;-93
2022/02/15 03:24:13;;;;;;;13.33;6.90;;;7.90;97.70;;;;;;5023407;28;20641;-92
2022/02/15 03:26:42;;;;;;;11.13;6.83;;;7.80;97.30;;;;;;5024474;28;20264;-91
2022/02/15 03:29:10;;;;;;;12.13;6.93;;;7.90;97.00;;;;;;5024997;28;20174;-91
2022/02/15 03:31:40;;;;;;;12.93;8.17;;;8.00;96.20;;;;;;5028765;28;20691;-91
2022/02/15 03:34:07;;;;;;;14.57;7.90;;;8.00;95.70;;;;;;5030240;28;20176;-90
2022/02/15 03:36:33;;;;;;;14.87;8.13;;;7.90;94.60;;;;;;5024647;28;20173;-91
2022/02/15 03:38:59;;;;;;;14.73;7.77;;;7.90;95.00;;;;;;5021701;28;20181;-92
2022/02/15 03:44:10;;;;;;;11.50;7.17;;;7.80;96.90;;;;;;5038819;28;20216;-93
2022/02/15 03:46:36;;;;;;;11.77;7.50;;;7.80;96.40;;;;;;5021008;28;20516;-91
2022/02/15 03:49:02;;;;;;;13.00;8.07;;;7.80;96.00;;;;;;5020182;28;20188;-93
2022/02/15 03:51:27;;;;;;;9.80;7.33;;;7.80;96.40;;;;;;5021101;28;20169;-92
2022/02/15 03:53:54;;;;;;;10.20;7.17;;;7.60;96.90;;;;;;5020671;28;20169;-93
2022/02/15 03:56:20;;;;;;;13.20;7.20;;;7.60;97.60;;;;;;5023934;28;20166;-92
2022/02/15 03:58:46;;;;;;;9.47;6.50;;;7.70;97.40;;;;;;5022139;28;20243;-92
2022/02/15 04:01:12;;;;;;;12.53;7.33;;;7.70;97.10;;;;;;5025495;28;20181;-92
2022/02/15 04:03:39;;;;;;;11.93;6.60;;;7.80;96.80;;;;;;5035836;28;20221;-92
2022/02/15 04:06:05;;;;;;;10.50;6.87;;;7.80;96.00;;;;;;5031556;28;20170;-91
2022/02/15 04:08:30;;;;;;;13.03;7.90;;;7.70;96.00;;;;;;5024437;28;20273;-92
2022/02/15 04:11:01;;;;;;;14.43;6.77;;;7.70;96.10;;;;;;5028056;28;20583;-92
2022/02/15 04:13:27;;;;;;;11.90;7.30;;;7.70;96.60;;;;;;5038681;28;20260;-92
2022/02/15 04:15:52;;;;;;;12.00;6.80;;;7.70;96.60;;;;;;5043854;28;20197;-92
2022/02/15 04:18:18;;;;;;;13.37;7.60;;;7.60;96.70;;;;;;5040984;28;20193;-91
2022/02/15 04:20:44;;;;;;;13.93;7.20;;;7.70;96.60;;;;;;5036927;28;20220;-92
2022/02/15 04:23:09;;;;;;;11.00;7.07;;;7.70;96.10;;;;;;5036179;28;20209;-91
2022/02/15 04:25:35;;;;;;;11.47;7.40;;;7.80;95.50;;;;;;5036050;28;20649;-91
2022/02/15 04:28:00;;;;;;;12.57;7.20;;;7.90;94.90;;;;;;5037452;28;20231;-91
2022/02/15 04:30:27;;;;;;;13.10;8.30;;;7.70;94.90;;;;;;5049752;28;20509;-90
2022/02/15 04:32:53;;;;;;;14.40;7.60;;;7.70;95.40;;;;;;5071041;28;20161;-91
2022/02/15 04:35:18;;;;;;;9.87;6.73;;;7.60;95.70;;;;;;5058175;28;20196;-91
2022/02/15 04:37:45;;;;;;;12.93;7.70;;;7.50;96.70;;;;;;5052306;28;20669;-92
2022/02/15 04:40:12;;;;;;;12.57;6.70;;;7.60;97.60;;;;;;5040123;28;20205;-91
2022/02/15 04:42:38;;;;;;;14.70;7.30;;;7.40;98.30;;;;;;5043194;28;20209;-91
2022/02/15 04:45:04;;;;;;;12.00;7.67;;;7.50;98.40;;;;;;5038992;28;20178;-91
2022/02/15 04:47:30;;;;;;;14.63;7.50;;;7.60;97.40;;;;;;5042891;28;20198;-90
2022/02/15 04:49:57;;;;;;;11.90;6.87;;;7.60;97.60;;;;;;5021162;28;20233;-91
2022/02/15 04:52:26;;;;;;;11.07;6.83;;;7.60;97.20;;;;;;5036850;28;20200;-90
2022/02/15 04:54:52;;;;;;;10.60;7.33;;;7.70;96.80;;;;;;5037342;28;20180;-93
2022/02/15 04:57:18;;;;;;;12.50;7.50;;;7.70;96.20;;;;;;5029211;28;20216;-92
2022/02/15 04:59:45;;;;;;;13.60;7.07;;;7.60;96.20;;;;;;5024268;28;20181;-92
2022/02/15 05:02:12;;;;;;;10.43;7.20;;;7.60;96.00;;;;;;5023193;28;20205;-91
2022/02/15 05:04:50;;;;;;;10.27;6.33;;;7.60;95.90;;;;;;5020597;28;20197;-91
2022/02/15 05:07:17;;;;;;;9.70;6.70;;;7.60;95.70;;;;;;5021162;28;20543;-91
2022/02/15 05:09:43;;;;;;;12.23;6.50;;;7.50;96.40;;;;;;5021439;28;20659;-91
2022/02/15 05:12:09;;;;;;;12.13;6.40;;;7.50;97.00;;;;;;5037919;28;20204;-93
2022/02/15 05:14:35;;;;;;;10.33;6.23;;;7.50;96.80;;;;;;5058655;28;20172;-92
2022/02/15 05:17:02;;;;;;;9.93;6.27;;;7.60;95.90;;;;;;5063749;28;20177;-91
2022/02/15 05:19:27;;;;;;;12.43;6.20;;;7.50;95.80;;;;;;5057650;28;20192;-90
2022/02/15 05:21:53;;;;;;;9.33;6.23;;;7.50;96.00;;;;;;5058887;28;20645;-91
2022/02/15 05:24:19;;;;;;;9.80;5.60;;;7.60;95.40;;;;;;5046986;28;20199;-91
2022/02/15 05:26:44;;;;;;;10.40;5.63;;;7.60;94.10;;;;;;5042713;28;20184;-91
2022/02/15 05:29:11;;;;;;;9.23;5.70;;;7.60;92.80;;;;;;5043187;28;20173;-92
2022/02/15 05:31:40;;;;;;;10.53;5.53;;;7.50;92.60;;;;;;5060023;28;20180;-92
2022/02/15 05:34:06;;;;;;;9.00;6.07;;;7.40;93.90;;;;;;5040045;28;20177;-92
2022/02/15 05:36:33;;;;;;;9.87;5.70;;;7.40;94.50;;;;;;5041485;28;20227;-92
2022/02/15 05:38:59;;;;;;;12.90;5.33;;;7.60;93.70;;;;;;5041376;28;20183;-93
2022/02/15 05:41:25;;;;;;;11.03;5.67;;;7.50;93.50;;;;;;5032344;28;20650;-92
2022/02/15 05:43:53;;;;;;;11.03;5.37;;;7.30;94.10;;;;;;5019610;28;20311;-92
2022/02/15 05:46:19;;;;;;;9.90;5.13;;;7.60;94.30;;;;;;5026838;28;20248;-92
2022/02/15 05:48:46;;;;;;;10.57;5.17;;;7.60;93.00;;;;;;5022360;28;20194;-92
2022/02/15 05:51:12;;;;;;;9.67;5.80;;;7.60;91.10;;;;;;5032967;28;20188;-93
2022/02/15 05:53:37;;;;;;;7.40;5.53;;;7.40;91.80;;;;;;5021348;28;20162;-93
2022/02/15 05:56:09;;;;;;;10.13;5.47;;;7.60;91.60;;;;;;5019505;28;20518;-93
2022/02/15 05:58:35;;;;;;;16.03;6.30;;;7.50;90.60;;;;;;5018850;28;20185;-91
2022/02/15 06:01:02;;;;;;;18.17;6.33;;;7.50;91.00;;;;;;5026519;28;20174;-92
2022/02/15 06:06:12;;;;;;;9.63;5.30;;;7.50;90.80;;;;;;5061408;28;20168;-92
2022/02/15 06:08:37;;;;;;;11.30;4.73;;;7.50;90.70;;;;;;5042721;28;20173;-94
2022/02/15 06:11:04;;;;;;;9.43;4.97;;;7.70;90.60;;;;;;5038700;28;20181;-94
2022/02/15 06:13:30;;;;;;;8.30;4.67;;;7.40;90.40;;;;;;5023813;28;20162;-94
2022/02/15 06:15:56;;;;;;;10.97;4.40;;;7.50;90.50;;;;;;5038996;28;20181;-93
2022/02/15 06:18:22;;;;;;;7.13;4.27;;;7.60;90.90;;;;;;5006719;28;20200;-91
2022/02/15 06:20:48;;;;;;;9.03;4.50;;;7.50;90.80;;;;;;4988749;28;20230;-92
2022/02/15 06:23:14;;;;;;;7.97;3.90;;;7.50;90.00;;;;;;5004617;28;20240;-92
2022/02/15 06:25:40;;;;;;;8.63;3.77;;;7.30;88.90;;;;;;5012230;28;20186;-91
2022/02/15 06:28:06;;;;;;;8.73;3.77;;;7.30;89.40;;;;;;5038715;28;20158;-91
2022/02/15 06:30:32;;;;;;;11.23;3.87;;;7.30;90.00;;;;;;5012176;28;20210;-93
2022/02/15 06:33:01;;;;;;;5.90;3.73;;;7.20;90.70;;;;;;4988561;28;20240;-94
2022/02/15 06:35:27;;;;;;;7.40;3.97;;;7.30;91.20;;;;;;5048747;28;20181;-91
2022/02/15 06:37:53;;;;;;;11.13;4.50;;;7.30;90.40;;;;;;5050457;28;20175;-94
2022/02/15 06:40:20;;;;;;;6.70;3.43;;;7.30;89.80;;;;;;5027617;28;20280;-93
2022/02/15 06:42:47;;;;;;;10.83;3.37;;;7.20;90.50;;;;;;5031520;28;20201;-92
2022/02/15 06:45:14;;;;;;;5.73;3.30;;;7.30;90.60;;;;;;5033110;28;20162;-91
2022/02/15 06:47:39;;;;;;;6.90;3.20;;;7.40;90.10;;;;;;5031882;28;20557;-92
2022/02/15 06:50:06;;;;;;;8.50;3.83;;;7.20;89.20;;;;;;5031903;28;20182;-93
2022/02/15 06:52:31;;;;;;;9.33;3.17;;;7.30;89.00;;;;;;5030519;28;20213;-92
2022/02/15 06:54:57;;;;;;;10.07;3.47;;;7.30;88.00;;;;;;5024146;28;20185;-93
2022/02/15 06:57:23;;;;;;;7.97;3.40;;;7.30;87.80;;;;;;5023317;28;20243;-92
2022/02/15 06:59:49;;;;;;;11.27;3.43;;;7.40;83.70;;;;;;5033403;28;20192;-90
2022/02/15 07:02:18;;;;;;;8.10;2.83;;;7.30;81.70;;;;;;5031042;28;20288;-93
2022/02/15 07:04:46;;;;;;;5.43;2.33;;;7.40;81.20;;;;;;5026502;28;20177;-92
2022/02/15 07:07:14;;;;;;;7.17;2.57;;;7.30;79.00;;;;;;5025362;28;20184;-94
2022/02/15 07:09:42;;;;;;;5.53;2.90;;;7.40;82.00;;;;;;5008918;28;20189;-92
2022/02/15 07:12:10;;;;;;;10.40;2.97;;;7.40;83.30;;;;;;5042038;28;20261;-92
2022/02/15 07:14:36;;;;;;;10.07;3.47;;;7.20;82.90;;;;;;5023946;28;20201;-92
2022/02/15 07:17:02;;;;;;;8.07;3.43;;;7.20;82.70;;;;;;5026484;28;20166;-92
2022/02/15 07:19:32;;;;;;;8.60;3.13;;;7.30;81.00;;;;;;5027699;28;20229;-93
2022/02/15 07:22:15;;;;;;;12.13;3.07;;;7.20;80.90;;;;;;5042065;28;20221;-91
2022/02/15 07:24:41;;;;;;;7.87;2.90;;;7.10;82.90;;;;;;5025443;28;20170;-92
2022/02/15 07:27:07;;;;;;;9.33;2.90;;;7.10;86.10;;;;;;5020228;28;20254;-92
2022/02/15 07:29:32;;;;;;;7.80;3.10;;;7.00;84.70;;;;;;5023526;28;20174;-93
2022/02/15 07:31:58;;;;;;;9.03;2.90;;;7.20;83.70;;;;;;5024880;28;20204;-92
2022/02/15 07:34:26;;;;;;;10.43;4.00;;;7.10;84.80;;;;;;5007246;28;20264;-93
2022/02/15 07:36:52;;;;;;;11.80;3.70;;;7.10;83.40;;;;;;5022840;28;20204;-92
2022/02/15 07:39:18;;;;;;;7.53;3.13;;;7.10;84.70;;;;;;5022911;28;20185;-92
2022/02/15 07:41:44;;;;;;;7.03;3.20;;;7.10;86.80;;;;;;5022006;28;20193;-92
2022/02/15 07:44:10;;;;;;;7.30;3.03;;;7.10;83.00;;;;;;5009366;28;20221;-91
2022/02/15 07:46:35;;;;;;;7.80;2.70;;;7.00;82.20;;;;;;5022710;28;20197;-92
2022/02/15 07:49:01;;;;;;;6.77;2.47;;;7.10;81.80;;;;;;5023959;28;20298;-92
2022/02/15 07:51:27;;;;;;;8.57;2.80;;;7.20;80.60;;;;;;5021687;28;20188;-92
2022/02/15 07:53:54;;;;;;;10.60;2.73;;;7.10;76.90;;;;;;5021685;28;20556;-92
2022/02/15 07:56:21;;;;;;;6.97;2.50;;;7.10;75.20;;;;;;5020871;28;20177;-91
2022/02/15 07:58:47;;;;;;;10.57;3.10;;;7.30;73.70;;;;;;5021468;28;20177;-91
2022/02/15 08:01:13;;;;;;;11.30;3.10;;;7.20;71.90;;;;;;5035154;28;20277;-92
2022/02/15 08:03:39;;;;;;;6.73;2.77;;;7.20;72.50;;;;;;5038321;28;20217;-91
2022/02/15 08:06:04;;;;;;;13.87;2.70;;;7.10;71.30;;;;;;5031242;28;20201;-91
2022/02/15 08:08:31;;;;;;;11.20;3.10;;;7.20;71.80;;;;;;5010874;28;20216;-90
2022/02/15 08:10:57;;;;;;;9.93;2.83;;;7.20;70.50;;;;;;5040165;28;20243;-89
2022/02/15 08:13:24;;;;;;;7.57;2.63;;;7.20;72.30;;;;;;5020778;28;20630;-91
2022/02/15 08:15:53;;;;;;;8.43;2.70;;;7.30;69.60;;;;;;5021545;28;20169;-92
2022/02/15 08:18:22;;;;;;;8.73;2.93;;;7.30;66.50;;;;;;5038492;28;20173;-91
2022/02/15 08:20:48;;;;;;;8.77;2.67;;;7.40;66.20;;;;;;5021593;28;20727;-94
2022/02/15 08:23:16;;;;;;;9.70;2.67;;;7.30;63.40;;;;;;5020828;28;20202;-93
2022/02/15 08:25:43;;;;;;;6.80;2.70;;;7.20;62.50;;;;;;5019788;28;20239;-92
2022/02/15 08:28:13;;;;;;;9.00;2.47;;;7.20;68.20;;;;;;5036839;28;20193;-92
2022/02/15 08:30:40;;;;;;;10.07;3.00;;;7.10;67.30;;;;;;5020060;28;20192;-93
2022/02/15 08:33:05;;;;;;;8.03;2.63;;;7.10;67.90;;;;;;5021573;28;20265;-93
2022/02/15 08:35:31;;;;;;;9.70;2.57;;;7.10;69.00;;;;;;5021570;28;20201;-92
2022/02/15 08:37:58;;;;;;;8.97;2.80;;;7.10;69.20;;;;;;5022604;28;20224;-91
2022/02/15 08:40:23;;;;;;;9.83;2.97;;;7.10;67.60;;;;;;5027165;28;20193;-92
2022/02/15 08:42:49;;;;;;;9.40;3.07;;;7.10;66.20;;;;;;5038873;28;20201;-91
2022/02/15 08:45:15;;;;;;;8.50;2.83;;;7.20;65.50;;;;;;5032482;28;20188;-91
2022/02/15 08:47:41;;;;;;;7.53;2.53;;;7.30;62.10;;;;;;5025366;28;20493;-91
2022/02/15 08:50:08;;;;;;;11.00;3.03;;;7.30;56.50;;;;;;5024153;28;20185;-91
2022/02/15 08:52:38;;;;;;;8.83;3.00;;;7.40;55.70;;;;;;5023527;28;20177;-92
2022/02/15 08:55:06;;;;;;;10.03;2.87;;;7.40;55.00;;;;;;5024391;28;20158;-91
2022/02/15 08:57:32;;;;;;;6.67;2.20;;;7.40;53.80;;;;;;5022946;28;20235;-92
2022/02/15 08:59:58;;;;;;;9.73;2.57;;;7.70;46.40;;;;;;5020037;28;20235;-91
2022/02/15 09:02:24;;;;;;;8.70;2.50;;;7.50;43.10;;;;;;5021683;28;20728;-92
2022/02/15 09:04:50;;;;;;;8.87;2.60;;;7.60;38.80;;;;;;5020738;28;20181;-93
2022/02/15 09:07:17;;;;;;;7.93;2.87;;;7.60;29.90;;;;;;5021585;28;20184;-92
2022/02/15 09:09:43;;;;;;;8.93;2.53;;;7.60;25.30;;;;;;5021281;28;20173;-91
2022/02/15 09:12:09;;;;;;;8.93;2.60;;;7.50;23.80;;;;;;5021227;28;20189;-92
2022/02/15 09:14:36;;;;;;;8.33;3.00;;;7.60;24.30;;;;;;5020550;28;20196;-93
2022/02/15 09:17:03;;;;;;;13.73;3.30;;;7.60;23.70;;;;;;5022260;28;20188;-92
2022/02/15 09:19:29;;;;;;;6.70;2.83;;;7.70;25.70;;;;;;5023262;28;20310;-93
2022/02/15 09:21:56;;;;;;;9.97;3.30;;;7.70;26.00;;;;;;5024440;28;20248;-91
2022/02/15 09:24:21;;;;;;;11.07;2.60;;;7.70;24.90;;;;;;5022766;28;20194;-92
2022/02/15 09:26:48;;;;;;;9.53;2.87;;;7.70;24.60;;;;;;5039397;28;20182;-90
2022/02/15 09:29:16;;;;;;;7.87;2.50;;;7.70;27.00;;;;;;5020815;28;20180;-89
2022/02/15 09:31:48;;;;;;;7.60;2.23;;;7.80;28.30;;;;;;5040961;28;20178;-91
2022/02/15 09:34:23;;;;;;;9.07;2.97;;;7.90;23.10;;;;;;5023558;28;20258;-91
2022/02/15 09:36:51;;;;;;;9.33;2.77;;;8.00;9.80;;;;;;5033343;28;20173;-90
2022/02/15 09:39:17;;;;;;;7.73;3.40;;;8.00;1.00;;;;;;5038352;28;20177;-89
2022/02/15 09:41:44;;;;;;;13.07;4.17;;;8.00;5.10;;;;;;5037080;28;20217;-90
2022/02/15 09:44:13;;;;;;;8.03;2.70;;;8.10;1.10;;;;;;5039768;28;20333;-92
2022/02/15 09:46:44;;;;;;;8.77;2.87;;;8.10;1.00;;;;;;5036828;28;20161;-93
2022/02/15 09:49:48;;;;;;;12.13;3.30;;;8.30;1.00;;;;;;5039824;28;20177;-93
2022/02/15 09:51:58;;;;;;;10.20;3.07;;;8.40;1.00;;;;;;5056121;28;20165;-91
2022/02/15 09:54:28;;;;;;;9.40;3.13;;;8.40;1.00;;;;;;5042281;28;20182;-90
2022/02/15 09:56:59;;;;;;;14.33;3.97;;;8.30;1.00;;;;;;5024503;28;20200;-89
2022/02/15 09:59:25;;;;;;;10.40;2.97;;;8.40;1.00;;;;;;5031909;28;20217;-92
2022/02/15 10:01:55;;;;;;;8.20;2.70;;;8.40;1.00;;;;;;5026477;28;20188;-93
2022/02/15 10:04:35;;;;;;;10.33;3.27;;;8.50;1.00;;;;;;5024938;28;20237;-91
2022/02/15 10:07:12;;;;;;;12.13;3.10;;;8.60;1.00;;;;;;5025611;28;20633;-92
2022/02/15 10:09:42;;;;;;;10.37;2.73;;;8.60;1.00;;;;;;5024354;28;20188;-92
2022/02/15 10:12:14;;;;;;;6.10;2.70;;;8.70;1.00;;;;;;5024934;28;20173;-90
2022/02/15 10:14:42;;;;;;;12.27;3.00;;;8.80;1.00;;;;;;5023604;28;20178;-91
2022/02/15 10:17:17;;;;;;;8.07;2.67;;;9.00;1.00;;;;;;5028224;28;20174;-91
2022/02/15 10:19:47;;;;;;;8.93;2.87;;;9.10;1.00;;;;;;5025102;28;20193;-92
2022/02/15 10:22:19;;;;;;;10.10;2.63;;;9.10;1.00;;;;;;5026121;28;20276;-91
2022/02/15 10:24:56;;;;;;;6.43;2.43;;;9.10;1.00;;;;;;5034299;28;20181;-90
2022/02/15 10:27:28;;;;;;;10.77;2.57;;;9.10;1.00;;;;;;5043380;28;20182;-91
2022/02/15 10:29:57;;;;;;;8.50;2.37;;;9.20;1.00;;;;;;5042772;28;20686;-90
2022/02/15 10:32:27;;;;;;;6.87;2.13;;;9.20;1.00;;;;;;5030161;28;20178;-92
2022/02/15 10:34:59;;;;;;;8.60;2.57;;;9.30;1.00;;;;;;5029324;28;20209;-92
2022/02/15 10:37:27;;;;;;;5.80;1.67;;;9.40;1.00;;;;;;5025808;28;20165;-93
2022/02/15 10:39:57;;;;;;;6.87;2.80;;;9.40;1.00;;;;;;5025714;28;20188;-90
2022/02/15 10:42:27;;;;;;;8.60;2.13;;;9.30;1.00;;;;;;5008189;28;20185;-92
2022/02/15 10:45:00;;;;;;;8.77;2.40;;;9.30;1.00;;;;;;5062114;28;20177;-90
2022/02/15 10:47:28;;;;;;;9.17;2.43;;;9.30;1.00;;;;;;5036162;28;20259;-92
2022/02/15 10:50:03;;;;;;;7.53;2.10;;;9.30;1.00;;;;;;5014641;28;20235;-91
2022/02/15 10:52:33;;;;;;;10.03;2.60;;;9.30;1.00;;;;;;5002975;28;20228;-90
2022/02/15 10:55:03;;;;;;;12.33;2.53;;;9.50;1.00;;;;;;5004577;28;20213;-95
2022/02/15 10:57:29;;;;;;;6.73;2.10;;;9.50;1.00;;;;;;4989603;28;20281;-90
2022/02/15 10:59:58;;;;;;;8.37;2.40;;;9.70;1.00;;;;;;5003390;28;20649;-91
2022/02/15 11:02:31;;;;;;;7.73;2.60;;;9.60;1.00;;;;;;4987701;28;20210;-90
2022/02/15 11:05:01;;;;;;;14.60;2.87;;;9.80;1.00;;;;;;5006018;28;20209;-90
2022/02/15 11:07:31;;;;;;;7.37;2.03;;;9.80;1.00;;;;;;5007016;28;20205;-92
2022/02/15 11:10:20;;;;;;;7.60;2.60;;;9.90;1.00;;;;;;5010027;28;20174;-89
2022/02/15 11:13:01;;;;;;;10.27;2.77;;;9.80;1.00;;;;;;5016507;28;20332;-90
2022/02/15 11:15:41;;;;;;;9.80;2.70;;;9.70;1.00;;;;;;5055097;28;20165;-91
2022/02/15 11:18:19;;;;;;;9.07;2.53;;;9.80;1.00;;;;;;5059083;28;20161;-89
2022/02/15 11:20:50;;;;;;;6.87;2.63;;;9.80;1.00;;;;;;5059050;28;20185;-90
2022/02/15 11:23:27;;;;;;;9.70;2.77;;;10.00;1.00;;;;;;5051179;28;20540;-93
2022/02/15 11:26:13;;;;;;;6.20;2.40;;;10.00;1.00;;;;;;5044226;28;20177;-91
2022/02/15 11:28:58;;;;;;;4.27;1.80;;;9.90;1.00;;;;;;5064284;28;20169;-92
2022/02/15 11:31:34;;;;;;;7.27;2.10;;;9.90;1.00;;;;;;5034033;28;20191;-91
2022/02/15 11:34:07;;;;;;;6.60;2.73;;;10.00;1.00;;;;;;5044022;28;20229;-92
2022/02/15 11:36:44;;;;;;;9.40;2.30;;;10.00;1.00;;;;;;5045688;28;20642;-90
2022/02/15 11:39:17;;;;;;;8.00;2.37;;;10.00;1.00;;;;;;5047960;28;20168;-92
2022/02/15 11:41:48;;;;;;;7.80;2.03;;;10.00;1.00;;;;;;5029192;28;20610;-91
2022/02/15 11:44:28;;;;;;;6.97;2.20;;;10.20;1.00;;;;;;5020611;28;20304;-92
2022/02/15 11:46:54;;;;;;;10.30;2.53;;;10.20;1.00;;;;;;5005197;28;20166;-93
2022/02/15 11:49:23;;;;;;;8.40;2.30;;;10.40;1.00;;;;;;5004417;28;20661;-91
2022/02/15 11:51:49;;;;;;;10.13;2.70;;;10.30;1.00;;;;;;5004656;28;20178;-90
2022/02/15 11:54:26;;;;;;;6.57;2.43;;;10.30;1.00;;;;;;5006118;28;20206;-91
2022/02/15 11:56:54;;;;;;;9.07;2.80;;;10.30;1.00;;;;;;5006501;28;20184;-90
2022/02/15 11:59:25;;;;;;;10.17;2.50;;;10.30;1.00;;;;;;5021969;28;20178;-91
2022/02/15 12:01:59;;;;;;;9.70;1.87;;;10.40;1.00;;;;;;4998527;28;20190;-91
2022/02/15 12:04:29;;;;;;;4.77;1.80;;;10.20;1.00;;;;;;5004118;28;20217;-89
2022/02/15 12:07:02;;;;;;;7.80;2.13;;;10.30;1.00;;;;;;5012499;28;20664;-91
2022/02/15 12:09:34;;;;;;;8.67;2.13;;;10.30;1.00;;;;;;5021643;28;20171;-92
2022/02/15 12:12:04;;;;;;;9.67;2.50;;;10.40;1.00;;;;;;5004504;28;20209;-90
2022/02/15 12:14:30;;;;;;;6.03;1.93;;;10.40;1.00;;;;;;5030843;28;20191;-91
2022/02/15 12:16:57;;;;;;;7.80;1.97;;;10.40;1.00;;;;;;5044519;28;20173;-91
2022/02/15 12:19:26;;;;;;;6.63;1.87;;;10.30;1.00;;;;;;5045373;28;20204;-90
2022/02/15 12:21:53;;;;;;;7.97;2.17;;;10.40;1.00;;;;;;5048663;28;20169;-91
2022/02/15 12:24:23;;;;;;;7.23;1.70;;;10.50;1.00;;;;;;5026959;28;20236;-92
2022/02/15 12:26:51;;;;;;;6.97;1.90;;;10.50;1.00;;;;;;5061029;28;20173;-91
2022/02/15 12:29:17;;;;;;;5.87;2.00;;;10.70;1.00;;;;;;5048173;28;20188;-91
2022/02/15 12:31:52;;;;;;;9.30;2.30;;;10.90;1.00;;;;;;5027685;28;20185;-90
2022/02/15 12:34:18;;;;;;;6.57;1.90;;;10.80;1.00;;;;;;5037675;28;20257;-92
2022/02/15 12:36:50;;;;;;;8.83;2.13;;;10.70;1.00;;;;;;5018531;28;20182;-91
2022/02/15 12:39:21;;;;;;;7.87;2.97;;;10.80;1.00;;;;;;5027794;28;20181;-90
2022/02/15 12:41:50;;;;;;;7.60;2.23;;;11.00;1.00;;;;;;5024973;28;20229;-91
2022/02/15 12:44:18;;;;;;;10.17;2.53;;;10.90;1.00;;;;;;5024924;28;20300;-90
2022/02/15 12:46:44;;;;;;;9.37;2.43;;;10.80;1.00;;;;;;5022643;28;20173;-89
2022/02/15 12:49:16;;;;;;;7.23;2.00;;;10.70;1.00;;;;;;5039990;28;20593;-90
2022/02/15 12:51:45;;;;;;;8.23;2.50;;;10.80;1.00;;;;;;5024662;28;20177;-90
2022/02/15 12:54:16;;;;;;;12.83;2.37;;;10.90;1.00;;;;;;5022289;28;20185;-88
2022/02/15 12:56:49;;;;;;;12.13;2.30;;;10.80;1.00;;;;;;5022000;28;20233;-91
2022/02/15 12:59:21;;;;;;;5.70;2.10;;;10.80;1.00;;;;;;5022541;28;20173;-91
2022/02/15 13:01:58;;;;;;;11.20;2.27;;;10.80;1.00;;;;;;5023743;28;20181;-90
2022/02/15 13:04:25;;;;;;;8.03;2.20;;;10.80;1.00;;;;;;5040556;28;20221;-91